sensor_id;sensor_type;location;lat;lon;timestamp;P1;durP1;ratioP1;P2;durP2;ratioP2
17177;SDS011;8704;52.006;4.374;2023-02-11T00:02:19;23.90;;;13.65;;
17177;SDS011;8704;52.006;4.374;2023-02-11T00:04:48;25.55;;;12.70;;
17177;SDS011;8704;52.006;4.374;2023-02-11T00:07:16;29.52;;;13.80;;
17177;SDS011;8704;52.006;4.374;2023-02-11T00:09:44;30.27;;;15.95;;
17177;SDS011;8704;52.006;4.374;2023-02-11T00:12:14;33.25;;;16.52;;
17177;SDS011;8704;52.006;4.374;2023-02-11T00:14:44;28.77;;;13.90;;
17177;SDS011;8704;52.006;4.374;2023-02-11T00:17:12;35.10;;;14.07;;
17177;SDS011;8704;52.006;4.374;2023-02-11T00:19:40;34.20;;;16.23;;
17177;SDS011;8704;52.006;4.374;2023-02-11T00:22:08;31.08;;;13.70;;
17177;SDS011;8704;52.006;4.374;2023-02-11T00:24:36;35.05;;;14.68;;
17177;SDS011;8704;52.006;4.374;2023-02-11T00:27:04;26.17;;;14.35;;
17177;SDS011;8704;52.006;4.374;2023-02-11T00:29:34;24.77;;;13.77;;
17177;SDS011;8704;52.006;4.374;2023-02-11T00:32:03;24.17;;;13.68;;
17177;SDS011;8704;52.006;4.374;2023-02-11T00:34:32;30.50;;;12.70;;
17177;SDS011;8704;52.006;4.374;2023-02-11T00:37:01;27.92;;;12.23;;
17177;SDS011;8704;52.006;4.374;2023-02-11T00:39:29;28.90;;;13.45;;
17177;SDS011;8704;52.006;4.374;2023-02-11T00:41:58;29.90;;;13.52;;
17177;SDS011;8704;52.006;4.374;2023-02-11T00:44:26;25.13;;;14.13;;
17177;SDS011;8704;52.006;4.374;2023-02-11T00:46:55;25.70;;;13.85;;
17177;SDS011;8704;52.006;4.374;2023-02-11T00:49:23;30.88;;;13.43;;
17177;SDS011;8704;52.006;4.374;2023-02-11T00:51:51;30.58;;;14.50;;
17177;SDS011;8704;52.006;4.374;2023-02-11T00:54:19;28.50;;;14.23;;
17177;SDS011;8704;52.006;4.374;2023-02-11T00:56:47;28.52;;;14.25;;
17177;SDS011;8704;52.006;4.374;2023-02-11T00:59:15;28.90;;;14.30;;
17177;SDS011;8704;52.006;4.374;2023-02-11T01:01:43;25.90;;;13.70;;
17177;SDS011;8704;52.006;4.374;2023-02-11T01:04:13;27.88;;;15.85;;
17177;SDS011;8704;52.006;4.374;2023-02-11T01:06:41;29.35;;;15.30;;
17177;SDS011;8704;52.006;4.374;2023-02-11T01:09:09;32.30;;;14.57;;
17177;SDS011;8704;52.006;4.374;2023-02-11T01:11:37;33.40;;;14.18;;
17177;SDS011;8704;52.006;4.374;2023-02-11T01:14:05;26.08;;;14.00;;
17177;SDS011;8704;52.006;4.374;2023-02-11T01:16:33;22.55;;;14.93;;
17177;SDS011;8704;52.006;4.374;2023-02-11T01:19:01;27.10;;;13.95;;
17177;SDS011;8704;52.006;4.374;2023-02-11T01:21:30;23.65;;;15.18;;
17177;SDS011;8704;52.006;4.374;2023-02-11T01:23:58;23.42;;;15.95;;
17177;SDS011;8704;52.006;4.374;2023-02-11T01:26:26;27.30;;;15.43;;
17177;SDS011;8704;52.006;4.374;2023-02-11T01:28:55;28.58;;;15.85;;
17177;SDS011;8704;52.006;4.374;2023-02-11T01:31:25;26.95;;;16.55;;
17177;SDS011;8704;52.006;4.374;2023-02-11T01:33:53;24.15;;;15.75;;
17177;SDS011;8704;52.006;4.374;2023-02-11T01:36:21;27.25;;;15.50;;
17177;SDS011;8704;52.006;4.374;2023-02-11T01:38:51;23.60;;;15.27;;
17177;SDS011;8704;52.006;4.374;2023-02-11T01:41:19;20.73;;;14.95;;
17177;SDS011;8704;52.006;4.374;2023-02-11T01:43:48;24.35;;;14.25;;
17177;SDS011;8704;52.006;4.374;2023-02-11T01:46:23;32.20;;;16.50;;
17177;SDS011;8704;52.006;4.374;2023-02-11T01:48:58;29.58;;;16.30;;
17177;SDS011;8704;52.006;4.374;2023-02-11T01:51:31;26.90;;;15.63;;
17177;SDS011;8704;52.006;4.374;2023-02-11T01:54:05;24.70;;;15.95;;
17177;SDS011;8704;52.006;4.374;2023-02-11T01:56:55;21.13;;;16.57;;
17177;SDS011;8704;52.006;4.374;2023-02-11T01:59:43;27.67;;;16.15;;
17177;SDS011;8704;52.006;4.374;2023-02-11T02:02:18;30.73;;;18.55;;
17177;SDS011;8704;52.006;4.374;2023-02-11T02:04:51;30.52;;;20.80;;
17177;SDS011;8704;52.006;4.374;2023-02-11T02:07:24;27.38;;;20.58;;
17177;SDS011;8704;52.006;4.374;2023-02-11T02:10:00;29.75;;;20.27;;
17177;SDS011;8704;52.006;4.374;2023-02-11T02:12:32;25.60;;;21.63;;
17177;SDS011;8704;52.006;4.374;2023-02-11T02:15:20;33.47;;;22.67;;
17177;SDS011;8704;52.006;4.374;2023-02-11T02:17:56;30.35;;;23.58;;
17177;SDS011;8704;52.006;4.374;2023-02-11T02:23:59;27.75;;;22.00;;
17177;SDS011;8704;52.006;4.374;2023-02-11T02:27:12;36.50;;;22.00;;
17177;SDS011;8704;52.006;4.374;2023-02-11T02:33:05;28.92;;;21.05;;
17177;SDS011;8704;52.006;4.374;2023-02-11T02:35:51;32.15;;;24.20;;
17177;SDS011;8704;52.006;4.374;2023-02-11T02:38:26;35.20;;;31.85;;
17177;SDS011;8704;52.006;4.374;2023-02-11T02:41:01;37.30;;;33.75;;
17177;SDS011;8704;52.006;4.374;2023-02-11T02:43:32;35.20;;;29.50;;
17177;SDS011;8704;52.006;4.374;2023-02-11T02:46:12;36.90;;;30.13;;
17177;SDS011;8704;52.006;4.374;2023-02-11T02:48:43;33.95;;;30.73;;
17177;SDS011;8704;52.006;4.374;2023-02-11T02:51:20;42.05;;;32.45;;
17177;SDS011;8704;52.006;4.374;2023-02-11T02:54:07;39.92;;;35.72;;
17177;SDS011;8704;52.006;4.374;2023-02-11T02:56:56;40.35;;;36.28;;
17177;SDS011;8704;52.006;4.374;2023-02-11T02:59:36;42.88;;;39.22;;
17177;SDS011;8704;52.006;4.374;2023-02-11T03:02:17;42.42;;;38.50;;
17177;SDS011;8704;52.006;4.374;2023-02-11T03:04:54;42.30;;;38.22;;
17177;SDS011;8704;52.006;4.374;2023-02-11T03:07:30;48.25;;;43.25;;
17177;SDS011;8704;52.006;4.374;2023-02-11T03:10:07;41.63;;;38.10;;
17177;SDS011;8704;52.006;4.374;2023-02-11T03:12:40;48.80;;;42.67;;
17177;SDS011;8704;52.006;4.374;2023-02-11T03:15:10;45.40;;;41.28;;
17177;SDS011;8704;52.006;4.374;2023-02-11T03:17:40;48.00;;;43.42;;
17177;SDS011;8704;52.006;4.374;2023-02-11T03:20:13;47.47;;;42.70;;
17177;SDS011;8704;52.006;4.374;2023-02-11T03:25:14;48.45;;;43.58;;
17177;SDS011;8704;52.006;4.374;2023-02-11T03:27:45;54.92;;;49.28;;
17177;SDS011;8704;52.006;4.374;2023-02-11T03:30:19;62.58;;;56.95;;
17177;SDS011;8704;52.006;4.374;2023-02-11T03:32:52;63.92;;;58.20;;
17177;SDS011;8704;52.006;4.374;2023-02-11T03:35:27;61.38;;;56.55;;
17177;SDS011;8704;52.006;4.374;2023-02-11T03:38:04;67.63;;;62.20;;
17177;SDS011;8704;52.006;4.374;2023-02-11T03:40:37;67.75;;;61.95;;
17177;SDS011;8704;52.006;4.374;2023-02-11T03:43:07;71.97;;;65.97;;
17177;SDS011;8704;52.006;4.374;2023-02-11T03:45:38;73.88;;;67.82;;
17177;SDS011;8704;52.006;4.374;2023-02-11T03:48:07;76.07;;;70.22;;
17177;SDS011;8704;52.006;4.374;2023-02-11T03:50:42;71.43;;;65.68;;
17177;SDS011;8704;52.006;4.374;2023-02-11T03:53:12;81.57;;;75.43;;
17177;SDS011;8704;52.006;4.374;2023-02-11T03:55:42;71.97;;;65.90;;
17177;SDS011;8704;52.006;4.374;2023-02-11T03:58:11;75.22;;;68.90;;
17177;SDS011;8704;52.006;4.374;2023-02-11T04:00:40;69.80;;;63.83;;
17177;SDS011;8704;52.006;4.374;2023-02-11T04:03:09;70.13;;;64.93;;
17177;SDS011;8704;52.006;4.374;2023-02-11T04:05:38;68.38;;;62.17;;
17177;SDS011;8704;52.006;4.374;2023-02-11T04:08:08;68.22;;;61.92;;
17177;SDS011;8704;52.006;4.374;2023-02-11T04:10:36;72.60;;;66.22;;
17177;SDS011;8704;52.006;4.374;2023-02-11T04:13:04;71.72;;;65.53;;
17177;SDS011;8704;52.006;4.374;2023-02-11T04:15:32;74.57;;;68.38;;
17177;SDS011;8704;52.006;4.374;2023-02-11T04:18:00;73.28;;;67.78;;
17177;SDS011;8704;52.006;4.374;2023-02-11T04:20:28;75.65;;;69.88;;
17177;SDS011;8704;52.006;4.374;2023-02-11T04:22:56;78.50;;;71.82;;
17177;SDS011;8704;52.006;4.374;2023-02-11T04:25:26;68.72;;;62.90;;
17177;SDS011;8704;52.006;4.374;2023-02-11T04:27:54;76.10;;;70.05;;
17177;SDS011;8704;52.006;4.374;2023-02-11T04:30:22;78.63;;;71.90;;
17177;SDS011;8704;52.006;4.374;2023-02-11T04:32:50;79.20;;;72.28;;
17177;SDS011;8704;52.006;4.374;2023-02-11T04:35:19;83.25;;;76.28;;
17177;SDS011;8704;52.006;4.374;2023-02-11T04:37:47;79.82;;;72.70;;
17177;SDS011;8704;52.006;4.374;2023-02-11T04:40:15;80.25;;;73.60;;
17177;SDS011;8704;52.006;4.374;2023-02-11T04:42:45;86.18;;;79.28;;
17177;SDS011;8704;52.006;4.374;2023-02-11T04:45:13;78.85;;;72.82;;
17177;SDS011;8704;52.006;4.374;2023-02-11T04:47:41;75.35;;;68.70;;
17177;SDS011;8704;52.006;4.374;2023-02-11T04:50:09;75.70;;;69.85;;
17177;SDS011;8704;52.006;4.374;2023-02-11T04:52:37;82.78;;;76.45;;
17177;SDS011;8704;52.006;4.374;2023-02-11T04:55:05;79.72;;;73.53;;
17177;SDS011;8704;52.006;4.374;2023-02-11T04:57:33;82.45;;;76.15;;
17177;SDS011;8704;52.006;4.374;2023-02-11T05:00:03;82.05;;;75.60;;
17177;SDS011;8704;52.006;4.374;2023-02-11T05:02:32;85.45;;;77.95;;
17177;SDS011;8704;52.006;4.374;2023-02-11T05:05:00;91.82;;;83.95;;
17177;SDS011;8704;52.006;4.374;2023-02-11T05:07:28;95.32;;;87.90;;
17177;SDS011;8704;52.006;4.374;2023-02-11T05:09:56;95.40;;;88.38;;
17177;SDS011;8704;52.006;4.374;2023-02-11T05:12:24;104.95;;;96.57;;
17177;SDS011;8704;52.006;4.374;2023-02-11T05:14:52;102.32;;;93.78;;
17177;SDS011;8704;52.006;4.374;2023-02-11T05:17:22;107.40;;;98.88;;
17177;SDS011;8704;52.006;4.374;2023-02-11T05:19:50;104.63;;;96.10;;
17177;SDS011;8704;52.006;4.374;2023-02-11T05:22:18;100.75;;;92.57;;
17177;SDS011;8704;52.006;4.374;2023-02-11T05:24:47;103.40;;;94.97;;
17177;SDS011;8704;52.006;4.374;2023-02-11T05:27:15;112.72;;;103.00;;
17177;SDS011;8704;52.006;4.374;2023-02-11T05:29:43;105.10;;;96.28;;
17177;SDS011;8704;52.006;4.374;2023-02-11T05:32:11;116.28;;;105.90;;
17177;SDS011;8704;52.006;4.374;2023-02-11T05:34:40;113.75;;;103.75;;
17177;SDS011;8704;52.006;4.374;2023-02-11T05:37:08;109.55;;;101.10;;
17177;SDS011;8704;52.006;4.374;2023-02-11T05:39:36;112.05;;;103.50;;
17177;SDS011;8704;52.006;4.374;2023-02-11T05:42:05;111.80;;;102.53;;
17177;SDS011;8704;52.006;4.374;2023-02-11T05:44:33;109.47;;;100.85;;
17177;SDS011;8704;52.006;4.374;2023-02-11T05:47:01;108.57;;;100.22;;
17177;SDS011;8704;52.006;4.374;2023-02-11T05:49:29;113.78;;;104.70;;
17177;SDS011;8704;52.006;4.374;2023-02-11T05:51:59;104.35;;;95.10;;
17177;SDS011;8704;52.006;4.374;2023-02-11T05:54:27;103.70;;;94.70;;
17177;SDS011;8704;52.006;4.374;2023-02-11T05:56:55;101.43;;;93.05;;
17177;SDS011;8704;52.006;4.374;2023-02-11T05:59:23;103.82;;;94.68;;
17177;SDS011;8704;52.006;4.374;2023-02-11T06:01:51;110.07;;;101.30;;
17177;SDS011;8704;52.006;4.374;2023-02-11T06:04:19;112.07;;;102.35;;
17177;SDS011;8704;52.006;4.374;2023-02-11T06:06:48;118.22;;;108.20;;
17177;SDS011;8704;52.006;4.374;2023-02-11T06:09:17;115.32;;;105.63;;
17177;SDS011;8704;52.006;4.374;2023-02-11T06:11:45;120.07;;;109.68;;
17177;SDS011;8704;52.006;4.374;2023-02-11T06:14:13;128.45;;;117.68;;
17177;SDS011;8704;52.006;4.374;2023-02-11T06:16:41;133.32;;;121.88;;
17177;SDS011;8704;52.006;4.374;2023-02-11T06:19:09;138.00;;;125.53;;
17177;SDS011;8704;52.006;4.374;2023-02-11T06:21:37;152.27;;;139.10;;
17177;SDS011;8704;52.006;4.374;2023-02-11T06:24:09;157.93;;;145.05;;
17177;SDS011;8704;52.006;4.374;2023-02-11T06:27:03;172.10;;;158.48;;
17177;SDS011;8704;52.006;4.374;2023-02-11T06:29:31;162.88;;;149.55;;
17177;SDS011;8704;52.006;4.374;2023-02-11T06:31:59;180.20;;;165.68;;
17177;SDS011;8704;52.006;4.374;2023-02-11T06:34:28;175.05;;;161.68;;
17177;SDS011;8704;52.006;4.374;2023-02-11T06:36:56;194.35;;;178.25;;
17177;SDS011;8704;52.006;4.374;2023-02-11T06:39:24;187.23;;;173.20;;
17177;SDS011;8704;52.006;4.374;2023-02-11T06:41:52;185.10;;;170.30;;
17177;SDS011;8704;52.006;4.374;2023-02-11T06:44:21;208.13;;;191.70;;
17177;SDS011;8704;52.006;4.374;2023-02-11T06:46:49;221.68;;;205.95;;
17177;SDS011;8704;52.006;4.374;2023-02-11T06:49:17;218.88;;;202.05;;
17177;SDS011;8704;52.006;4.374;2023-02-11T06:51:45;220.63;;;203.90;;
17177;SDS011;8704;52.006;4.374;2023-02-11T06:54:13;218.57;;;201.95;;
17177;SDS011;8704;52.006;4.374;2023-02-11T06:56:41;214.88;;;199.48;;
17177;SDS011;8704;52.006;4.374;2023-02-11T06:59:11;225.40;;;209.82;;
17177;SDS011;8704;52.006;4.374;2023-02-11T07:01:43;219.15;;;203.38;;
17177;SDS011;8704;52.006;4.374;2023-02-11T07:04:11;217.25;;;201.27;;
17177;SDS011;8704;52.006;4.374;2023-02-11T07:06:40;215.18;;;199.18;;
17177;SDS011;8704;52.006;4.374;2023-02-11T07:09:08;216.98;;;200.70;;
17177;SDS011;8704;52.006;4.374;2023-02-11T07:11:36;208.85;;;193.63;;
17177;SDS011;8704;52.006;4.374;2023-02-11T07:14:05;206.10;;;190.25;;
17177;SDS011;8704;52.006;4.374;2023-02-11T07:16:34;218.20;;;201.45;;
17177;SDS011;8704;52.006;4.374;2023-02-11T07:19:04;203.52;;;188.00;;
17177;SDS011;8704;52.006;4.374;2023-02-11T07:21:32;214.93;;;199.60;;
17177;SDS011;8704;52.006;4.374;2023-02-11T07:24:00;231.48;;;214.98;;
17177;SDS011;8704;52.006;4.374;2023-02-11T07:26:36;220.30;;;203.55;;
17177;SDS011;8704;52.006;4.374;2023-02-11T07:29:06;221.32;;;204.38;;
17177;SDS011;8704;52.006;4.374;2023-02-11T07:31:34;234.80;;;217.75;;
17177;SDS011;8704;52.006;4.374;2023-02-11T07:34:02;245.15;;;227.52;;
17177;SDS011;8704;52.006;4.374;2023-02-11T07:36:32;251.52;;;233.38;;
17177;SDS011;8704;52.006;4.374;2023-02-11T07:39:00;257.73;;;239.68;;
17177;SDS011;8704;52.006;4.374;2023-02-11T07:41:28;262.10;;;242.90;;
17177;SDS011;8704;52.006;4.374;2023-02-11T07:43:56;267.63;;;248.48;;
17177;SDS011;8704;52.006;4.374;2023-02-11T07:46:25;269.27;;;249.85;;
17177;SDS011;8704;52.006;4.374;2023-02-11T07:48:54;278.20;;;257.15;;
17177;SDS011;8704;52.006;4.374;2023-02-11T07:51:25;285.77;;;265.77;;
17177;SDS011;8704;52.006;4.374;2023-02-11T07:53:56;295.80;;;274.50;;
17177;SDS011;8704;52.006;4.374;2023-02-11T07:56:26;289.02;;;267.95;;
17177;SDS011;8704;52.006;4.374;2023-02-11T07:58:55;295.50;;;273.70;;
17177;SDS011;8704;52.006;4.374;2023-02-11T08:01:26;299.25;;;277.67;;
17177;SDS011;8704;52.006;4.374;2023-02-11T08:03:54;293.33;;;272.67;;
17177;SDS011;8704;52.006;4.374;2023-02-11T08:06:25;295.38;;;273.83;;
17177;SDS011;8704;52.006;4.374;2023-02-11T08:08:54;293.27;;;272.20;;
17177;SDS011;8704;52.006;4.374;2023-02-11T08:11:22;291.25;;;269.98;;
17177;SDS011;8704;52.006;4.374;2023-02-11T08:13:52;303.80;;;281.63;;
17177;SDS011;8704;52.006;4.374;2023-02-11T08:16:22;290.40;;;269.83;;
17177;SDS011;8704;52.006;4.374;2023-02-11T08:18:52;286.75;;;266.98;;
17177;SDS011;8704;52.006;4.374;2023-02-11T08:21:20;299.95;;;278.25;;
17177;SDS011;8704;52.006;4.374;2023-02-11T08:23:50;308.20;;;286.23;;
17177;SDS011;8704;52.006;4.374;2023-02-11T08:26:18;297.17;;;276.38;;
17177;SDS011;8704;52.006;4.374;2023-02-11T08:28:50;295.02;;;274.77;;
17177;SDS011;8704;52.006;4.374;2023-02-11T08:31:20;298.27;;;277.05;;
17177;SDS011;8704;52.006;4.374;2023-02-11T08:33:50;286.52;;;267.85;;
17177;SDS011;8704;52.006;4.374;2023-02-11T08:36:23;285.52;;;266.40;;
17177;SDS011;8704;52.006;4.374;2023-02-11T08:38:56;290.33;;;270.90;;
17177;SDS011;8704;52.006;4.374;2023-02-11T08:41:43;288.73;;;269.67;;
17177;SDS011;8704;52.006;4.374;2023-02-11T08:44:13;287.65;;;269.17;;
17177;SDS011;8704;52.006;4.374;2023-02-11T08:46:42;274.33;;;257.15;;
17177;SDS011;8704;52.006;4.374;2023-02-11T08:49:10;276.42;;;258.67;;
17177;SDS011;8704;52.006;4.374;2023-02-11T08:51:38;266.35;;;249.27;;
17177;SDS011;8704;52.006;4.374;2023-02-11T08:54:07;242.38;;;227.15;;
17177;SDS011;8704;52.006;4.374;2023-02-11T08:56:36;236.98;;;222.18;;
17177;SDS011;8704;52.006;4.374;2023-02-11T08:59:04;213.55;;;200.15;;
17177;SDS011;8704;52.006;4.374;2023-02-11T09:01:34;185.88;;;173.80;;
17177;SDS011;8704;52.006;4.374;2023-02-11T09:04:02;173.40;;;162.38;;
17177;SDS011;8704;52.006;4.374;2023-02-11T09:06:31;149.90;;;139.90;;
17177;SDS011;8704;52.006;4.374;2023-02-11T09:08:59;120.45;;;112.93;;
17177;SDS011;8704;52.006;4.374;2023-02-11T09:11:30;96.25;;;89.53;;
17177;SDS011;8704;52.006;4.374;2023-02-11T09:14:00;78.78;;;72.65;;
17177;SDS011;8704;52.006;4.374;2023-02-11T09:31:49;51.95;;;47.50;;
17177;SDS011;8704;52.006;4.374;2023-02-11T09:34:17;41.40;;;37.78;;
17177;SDS011;8704;52.006;4.374;2023-02-11T09:36:45;39.42;;;35.63;;
17177;SDS011;8704;52.006;4.374;2023-02-11T09:39:14;36.33;;;32.53;;
17177;SDS011;8704;52.006;4.374;2023-02-11T09:44:56;36.60;;;33.30;;
17177;SDS011;8704;52.006;4.374;2023-02-11T09:47:29;34.58;;;31.48;;
17177;SDS011;8704;52.006;4.374;2023-02-11T09:49:59;32.53;;;29.38;;
17177;SDS011;8704;52.006;4.374;2023-02-11T09:52:32;32.13;;;29.02;;
17177;SDS011;8704;52.006;4.374;2023-02-11T09:55:09;32.20;;;29.30;;
17177;SDS011;8704;52.006;4.374;2023-02-11T09:57:43;31.42;;;28.52;;
17177;SDS011;8704;52.006;4.374;2023-02-11T10:03:02;33.33;;;30.00;;
17177;SDS011;8704;52.006;4.374;2023-02-11T10:05:56;30.13;;;27.13;;
17177;SDS011;8704;52.006;4.374;2023-02-11T10:08:38;29.33;;;26.60;;
17177;SDS011;8704;52.006;4.374;2023-02-11T10:11:17;32.08;;;28.83;;
17177;SDS011;8704;52.006;4.374;2023-02-11T10:14:00;29.40;;;26.40;;
17177;SDS011;8704;52.006;4.374;2023-02-11T10:16:46;29.00;;;26.02;;
17177;SDS011;8704;52.006;4.374;2023-02-11T10:19:29;28.42;;;25.52;;
17177;SDS011;8704;52.006;4.374;2023-02-11T10:22:11;26.67;;;23.77;;
17177;SDS011;8704;52.006;4.374;2023-02-11T10:24:47;25.40;;;21.20;;
17177;SDS011;8704;52.006;4.374;2023-02-11T10:27:18;25.67;;;22.83;;
17177;SDS011;8704;52.006;4.374;2023-02-11T10:29:48;26.73;;;23.33;;
17177;SDS011;8704;52.006;4.374;2023-02-11T10:32:25;27.05;;;24.13;;
17177;SDS011;8704;52.006;4.374;2023-02-11T10:35:01;27.15;;;23.60;;
17177;SDS011;8704;52.006;4.374;2023-02-11T10:37:36;24.30;;;21.85;;
17177;SDS011;8704;52.006;4.374;2023-02-11T10:40:05;22.65;;;20.27;;
17177;SDS011;8704;52.006;4.374;2023-02-11T10:42:39;25.88;;;23.23;;
17177;SDS011;8704;52.006;4.374;2023-02-11T11:21:13;24.85;;;20.85;;
17177;SDS011;8704;52.006;4.374;2023-02-11T11:23:52;24.20;;;21.67;;
17177;SDS011;8704;52.006;4.374;2023-02-11T11:56:26;27.73;;;24.42;;
17177;SDS011;8704;52.006;4.374;2023-02-11T11:58:57;23.63;;;20.58;;
17177;SDS011;8704;52.006;4.374;2023-02-11T12:04:08;25.92;;;20.13;;
17177;SDS011;8704;52.006;4.374;2023-02-11T12:07:01;25.98;;;18.90;;
17177;SDS011;8704;52.006;4.374;2023-02-11T12:09:45;23.75;;;19.85;;
17177;SDS011;8704;52.006;4.374;2023-02-11T12:12:25;28.63;;;19.70;;
17177;SDS011;8704;52.006;4.374;2023-02-11T12:15:05;26.77;;;21.88;;
17177;SDS011;8704;52.006;4.374;2023-02-11T12:17:45;24.90;;;18.45;;
17177;SDS011;8704;52.006;4.374;2023-02-11T12:20:28;24.35;;;18.80;;
17177;SDS011;8704;52.006;4.374;2023-02-11T12:23:10;38.13;;;28.52;;
17177;SDS011;8704;52.006;4.374;2023-02-11T12:25:50;28.98;;;24.17;;
17177;SDS011;8704;52.006;4.374;2023-02-11T12:28:28;37.20;;;30.13;;
17177;SDS011;8704;52.006;4.374;2023-02-11T12:31:11;39.42;;;35.20;;
17177;SDS011;8704;52.006;4.374;2023-02-11T12:33:52;41.30;;;37.22;;
17177;SDS011;8704;52.006;4.374;2023-02-11T12:39:23;21.63;;;19.25;;
17177;SDS011;8704;52.006;4.374;2023-02-11T12:42:06;22.92;;;19.50;;
17177;SDS011;8704;52.006;4.374;2023-02-11T12:45:06;22.27;;;18.05;;
17177;SDS011;8704;52.006;4.374;2023-02-11T12:47:44;28.15;;;23.92;;
17177;SDS011;8704;52.006;4.374;2023-02-11T12:50:23;19.90;;;16.50;;
17177;SDS011;8704;52.006;4.374;2023-02-11T12:53:04;21.65;;;17.13;;
17177;SDS011;8704;52.006;4.374;2023-02-11T12:55:42;21.85;;;15.57;;
17177;SDS011;8704;52.006;4.374;2023-02-11T12:58:14;20.52;;;16.08;;
17177;SDS011;8704;52.006;4.374;2023-02-11T13:00:51;21.38;;;17.13;;
17177;SDS011;8704;52.006;4.374;2023-02-11T13:03:22;28.95;;;24.98;;
17177;SDS011;8704;52.006;4.374;2023-02-11T13:05:54;17.07;;;15.17;;
17177;SDS011;8704;52.006;4.374;2023-02-11T13:10:56;19.33;;;13.57;;
17177;SDS011;8704;52.006;4.374;2023-02-11T13:16:00;18.10;;;14.23;;
17177;SDS011;8704;52.006;4.374;2023-02-11T13:18:38;22.00;;;19.73;;
17177;SDS011;8704;52.006;4.374;2023-02-11T13:21:18;17.88;;;14.32;;
17177;SDS011;8704;52.006;4.374;2023-02-11T13:23:56;15.63;;;11.80;;
17177;SDS011;8704;52.006;4.374;2023-02-11T13:26:28;14.88;;;12.90;;
17177;SDS011;8704;52.006;4.374;2023-02-11T13:29:06;13.18;;;10.40;;
17177;SDS011;8704;52.006;4.374;2023-02-11T13:32:04;15.18;;;11.77;;
17177;SDS011;8704;52.006;4.374;2023-02-11T13:34:54;15.35;;;13.60;;
17177;SDS011;8704;52.006;4.374;2023-02-11T13:37:24;14.38;;;12.65;;
17177;SDS011;8704;52.006;4.374;2023-02-11T13:39:57;21.55;;;15.30;;
17177;SDS011;8704;52.006;4.374;2023-02-11T13:42:27;38.55;;;34.08;;
17177;SDS011;8704;52.006;4.374;2023-02-11T13:44:56;19.20;;;13.63;;
17177;SDS011;8704;52.006;4.374;2023-02-11T13:47:28;14.38;;;9.90;;
17177;SDS011;8704;52.006;4.374;2023-02-11T13:49:59;12.23;;;10.05;;
17177;SDS011;8704;52.006;4.374;2023-02-11T13:52:33;12.73;;;8.70;;
17177;SDS011;8704;52.006;4.374;2023-02-11T13:55:05;15.55;;;12.68;;
17177;SDS011;8704;52.006;4.374;2023-02-11T13:57:41;14.70;;;9.38;;
17177;SDS011;8704;52.006;4.374;2023-02-11T14:03:20;15.63;;;13.70;;
17177;SDS011;8704;52.006;4.374;2023-02-11T14:06:16;15.60;;;10.35;;
17177;SDS011;8704;52.006;4.374;2023-02-11T14:09:08;23.65;;;21.48;;
17177;SDS011;8704;52.006;4.374;2023-02-11T14:11:52;13.80;;;9.57;;
17177;SDS011;8704;52.006;4.374;2023-02-11T14:14:23;10.20;;;7.03;;
17177;SDS011;8704;52.006;4.374;2023-02-11T14:19:57;13.85;;;10.48;;
17177;SDS011;8704;52.006;4.374;2023-02-11T14:22:27;13.93;;;6.68;;
17177;SDS011;8704;52.006;4.374;2023-02-11T14:24:58;10.48;;;7.20;;
17177;SDS011;8704;52.006;4.374;2023-02-11T14:27:29;19.95;;;17.38;;
17177;SDS011;8704;52.006;4.374;2023-02-11T14:30:17;9.63;;;7.05;;
17177;SDS011;8704;52.006;4.374;2023-02-11T14:33:07;14.27;;;8.82;;
17177;SDS011;8704;52.006;4.374;2023-02-11T14:35:57;11.32;;;9.15;;
17177;SDS011;8704;52.006;4.374;2023-02-11T14:38:34;9.40;;;7.03;;
17177;SDS011;8704;52.006;4.374;2023-02-11T14:41:17;13.45;;;9.52;;
17177;SDS011;8704;52.006;4.374;2023-02-11T14:43:48;19.02;;;16.15;;
17177;SDS011;8704;52.006;4.374;2023-02-11T14:46:20;11.65;;;7.95;;
17177;SDS011;8704;52.006;4.374;2023-02-11T14:48:53;10.20;;;8.45;;
17177;SDS011;8704;52.006;4.374;2023-02-11T14:51:26;21.17;;;14.85;;
17177;SDS011;8704;52.006;4.374;2023-02-11T14:53:57;13.82;;;11.15;;
17177;SDS011;8704;52.006;4.374;2023-02-11T14:59:00;18.20;;;14.98;;
17177;SDS011;8704;52.006;4.374;2023-02-11T15:01:29;14.48;;;8.80;;
17177;SDS011;8704;52.006;4.374;2023-02-11T15:04:00;19.97;;;15.43;;
17177;SDS011;8704;52.006;4.374;2023-02-11T15:06:31;10.30;;;7.03;;
17177;SDS011;8704;52.006;4.374;2023-02-11T15:09:05;11.73;;;7.72;;
17177;SDS011;8704;52.006;4.374;2023-02-11T15:11:43;23.83;;;17.40;;
17177;SDS011;8704;52.006;4.374;2023-02-11T15:14:15;11.90;;;7.43;;
17177;SDS011;8704;52.006;4.374;2023-02-11T15:16:49;10.88;;;6.80;;
17177;SDS011;8704;52.006;4.374;2023-02-11T15:19:20;13.27;;;8.77;;
17177;SDS011;8704;52.006;4.374;2023-02-11T15:21:53;11.18;;;7.22;;
17177;SDS011;8704;52.006;4.374;2023-02-11T15:26:57;11.63;;;7.78;;
17177;SDS011;8704;52.006;4.374;2023-02-11T15:29:26;19.17;;;13.07;;
17177;SDS011;8704;52.006;4.374;2023-02-11T15:32:02;14.60;;;10.50;;
17177;SDS011;8704;52.006;4.374;2023-02-11T15:34:32;15.25;;;9.70;;
17177;SDS011;8704;52.006;4.374;2023-02-11T15:37:02;25.13;;;16.83;;
17177;SDS011;8704;52.006;4.374;2023-02-11T15:39:31;18.95;;;11.52;;
17177;SDS011;8704;52.006;4.374;2023-02-11T15:42:15;14.90;;;8.88;;
17177;SDS011;8704;52.006;4.374;2023-02-11T15:44:49;16.67;;;10.35;;
17177;SDS011;8704;52.006;4.374;2023-02-11T15:47:33;16.77;;;8.27;;
17177;SDS011;8704;52.006;4.374;2023-02-11T15:50:02;33.90;;;22.33;;
17177;SDS011;8704;52.006;4.374;2023-02-11T15:52:33;19.35;;;13.95;;
17177;SDS011;8704;52.006;4.374;2023-02-11T15:55:01;15.50;;;9.27;;
17177;SDS011;8704;52.006;4.374;2023-02-11T15:57:30;11.38;;;7.72;;
17177;SDS011;8704;52.006;4.374;2023-02-11T16:00:00;17.58;;;11.00;;
17177;SDS011;8704;52.006;4.374;2023-02-11T16:02:32;14.98;;;11.48;;
17177;SDS011;8704;52.006;4.374;2023-02-11T16:05:23;17.73;;;8.90;;
17177;SDS011;8704;52.006;4.374;2023-02-11T16:07:55;24.00;;;15.68;;
17177;SDS011;8704;52.006;4.374;2023-02-11T16:10:25;17.17;;;10.45;;
17177;SDS011;8704;52.006;4.374;2023-02-11T16:13:02;14.75;;;10.05;;
17177;SDS011;8704;52.006;4.374;2023-02-11T16:15:45;16.40;;;10.65;;
17177;SDS011;8704;52.006;4.374;2023-02-11T16:18:24;14.50;;;10.45;;
17177;SDS011;8704;52.006;4.374;2023-02-11T16:21:04;19.52;;;12.55;;
17177;SDS011;8704;52.006;4.374;2023-02-11T16:23:39;13.45;;;8.60;;
17177;SDS011;8704;52.006;4.374;2023-02-11T16:26:10;15.85;;;10.77;;
17177;SDS011;8704;52.006;4.374;2023-02-11T16:28:47;15.95;;;10.05;;
17177;SDS011;8704;52.006;4.374;2023-02-11T16:31:15;15.25;;;8.60;;
17177;SDS011;8704;52.006;4.374;2023-02-11T16:33:44;18.27;;;11.27;;
17177;SDS011;8704;52.006;4.374;2023-02-11T16:36:13;17.13;;;12.20;;
17177;SDS011;8704;52.006;4.374;2023-02-11T16:38:44;117.70;;;81.97;;
17177;SDS011;8704;52.006;4.374;2023-02-11T16:41:13;29.45;;;20.17;;
17177;SDS011;8704;52.006;4.374;2023-02-11T16:43:41;252.95;;;164.20;;
17177;SDS011;8704;52.006;4.374;2023-02-11T16:46:10;44.08;;;28.92;;
17177;SDS011;8704;52.006;4.374;2023-02-11T16:48:40;169.33;;;112.10;;
17177;SDS011;8704;52.006;4.374;2023-02-11T16:51:09;20.88;;;13.23;;
17177;SDS011;8704;52.006;4.374;2023-02-11T16:53:39;27.77;;;20.90;;
17177;SDS011;8704;52.006;4.374;2023-02-11T16:56:11;17.10;;;12.48;;
17177;SDS011;8704;52.006;4.374;2023-02-11T16:58:42;18.60;;;9.57;;